Time;durP1;ratioP1;P1;durP2;ratioP2;P2;SDS_P1;SDS_P2;PMS_P1;PMS_P2;Temp;Humidity;BMP_temperature;BMP_pressure;BME280_temperature;BME280_humidity;BME280_pressure;Samples;Min_cycle;Max_cycle;Signal;HPM_P1;HPM_P2
2022/06/18 00:00:12;;;;;;;;;24.25;21.50;;;;;29.14;36.73;101124.69;5064053;27;45728;-63
2022/06/18 00:02:37;;;;;;;;;24.25;23.25;;;;;29.14;36.74;101121.97;5071438;27;45607;-62
2022/06/18 00:05:03;;;;;;;;;19.00;17.25;;;;;29.13;37.09;101115.72;5073127;27;45490;-65
2022/06/18 00:07:28;;;;;;;;;16.25;16.25;;;;;29.11;37.03;101109.59;5073237;27;45463;-65
2022/06/18 00:10:04;;;;;;;;;20.25;18.50;;;;;29.11;36.74;101115.00;5066468;28;46097;-61
2022/06/18 00:15:24;;;;;;;;;17.00;16.25;;;;;29.07;37.16;101105.53;5074332;27;45549;-64
2022/06/18 00:17:51;;;;;;;;;15.25;15.25;;;;;29.06;37.18;101107.38;5071338;27;45513;-64
2022/06/18 00:20:19;;;;;;;;;15.00;15.00;;;;;29.09;37.47;101108.06;5055296;28;46386;-62
2022/06/18 00:22:55;;;;;;;;;15.25;15.25;;;;;29.05;37.15;101104.84;5058375;28;45538;-64
2022/06/18 00:25:31;;;;;;;;;14.75;14.75;;;;;29.06;37.32;101106.53;5061750;27;45603;-63
2022/06/18 00:27:57;;;;;;;;;17.75;16.75;;;;;29.01;37.35;101103.41;5075911;27;45517;-63
2022/06/18 00:30:25;;;;;;;;;18.00;17.25;;;;;28.99;37.82;101103.59;5074064;27;46222;-63
2022/06/18 00:32:51;;;;;;;;;16.00;15.00;;;;;28.95;37.27;101096.81;5076757;27;45619;-64
2022/06/18 00:35:17;;;;;;;;;20.25;18.75;;;;;28.92;37.63;101097.13;5073906;27;45551;-64
2022/06/18 00:37:43;;;;;;;;;18.00;17.50;;;;;28.85;37.88;101102.34;5076308;27;45481;-63
2022/06/18 00:40:21;;;;;;;;;16.00;15.50;;;;;28.87;37.67;101099.47;5071781;27;46100;-63
2022/06/18 00:42:49;;;;;;;;;17.50;17.50;;;;;28.88;38.14;101105.72;5062369;27;46020;-65
2022/06/18 00:45:22;;;;;;;;;17.00;17.00;;;;;28.77;38.61;101105.00;5065208;27;45481;-62
2022/06/18 00:48:04;;;;;;;;;15.75;15.75;;;;;28.74;38.25;101108.03;5075044;27;45501;-62
2022/06/18 00:50:33;;;;;;;;;15.75;14.75;;;;;28.62;38.81;101101.19;5072781;27;46745;-63
2022/06/18 00:53:07;;;;;;;;;18.00;18.00;;;;;28.62;38.09;101112.03;5065877;27;45445;-63
2022/06/18 00:55:50;;;;;;;;;16.00;16.00;;;;;28.62;38.93;101104.75;5054610;28;45437;-63
2022/06/18 00:58:23;;;;;;;;;16.50;16.50;;;;;28.59;39.06;101110.47;5057778;28;45516;-62
2022/06/18 01:00:50;;;;;;;;;19.50;16.00;;;;;28.60;38.97;101111.31;5065391;27;47918;-60
2022/06/18 01:03:44;;;;;;;;;15.60;15.60;;;;;28.59;39.01;101109.63;5064214;27;45534;-66
2022/06/18 01:06:14;;;;;;;;;12.60;12.60;;;;;28.50;38.52;101099.75;5059032;27;46247;-64
2022/06/18 01:08:42;;;;;;;;;15.25;14.25;;;;;28.52;38.80;101104.00;5060467;27;45486;-64
2022/06/18 01:11:16;;;;;;;;;13.00;13.00;;;;;28.43;38.90;101102.25;5073192;27;45453;-64
2022/06/18 01:13:42;;;;;;;;;16.40;15.40;;;;;28.39;38.74;101104.38;5073052;27;45450;-64
2022/06/18 01:16:09;;;;;;;;;13.00;13.00;;;;;28.40;38.59;101106.09;5073079;27;45503;-64
2022/06/18 01:18:38;;;;;;;;;12.00;12.00;;;;;28.36;38.84;101101.16;5074350;27;45413;-64
2022/06/18 01:21:15;;;;;;;;;15.00;14.00;;;;;28.37;38.96;101110.94;5070934;27;45628;-63
2022/06/18 01:23:51;;;;;;;;;14.80;13.60;;;;;28.39;38.50;101100.84;5064222;27;45468;-65
2022/06/18 01:26:17;;;;;;;;;13.00;12.75;;;;;28.33;38.48;101099.59;5068879;27;45520;-64
2022/06/18 01:28:42;;;;;;;;;12.25;12.00;;;;;28.37;38.53;101097.41;5072179;28;45616;-64
2022/06/18 01:31:08;;;;;;;;;15.50;15.50;;;;;28.41;38.49;101093.41;5065137;27;45705;-62
2022/06/18 01:33:35;;;;;;;;;14.00;14.00;;;;;28.41;38.55;101091.53;5053166;28;45535;-64
2022/06/18 01:36:05;;;;;;;;;15.00;15.00;;;;;28.41;38.94;101094.25;5056740;28;45843;-62
2022/06/18 01:38:33;;;;;;;;;15.75;15.75;;;;;28.44;38.51;101095.81;5060836;28;45561;-63
2022/06/18 01:41:49;;;;;;;;;16.50;16.50;;;;;28.44;38.80;101093.13;5069809;27;46677;-63
2022/06/18 01:43:52;;;;;;;;;22.00;20.00;;;;;28.41;39.19;101091.53;5072370;27;45481;-62
2022/06/18 01:46:18;;;;;;;;;18.25;16.00;;;;;28.42;38.49;101087.84;5077820;27;45404;-63
2022/06/18 01:48:46;;;;;;;;;16.00;16.00;;;;;28.41;39.31;101086.13;5077363;27;45504;-62
2022/06/18 01:51:17;;;;;;;;;12.25;12.25;;;;;28.42;39.20;101085.16;5059016;28;45661;-62
2022/06/18 01:53:49;;;;;;;;;17.00;17.00;;;;;28.42;39.53;101089.69;5064922;27;45440;-61
2022/06/18 01:56:23;;;;;;;;;13.00;13.00;;;;;28.39;38.99;101084.59;5075672;27;45425;-64
2022/06/18 01:58:54;;;;;;;;;14.75;14.75;;;;;28.36;39.32;101077.63;5076002;27;46040;-61
2022/06/18 02:01:29;;;;;;;;;16.00;15.00;;;;;28.37;38.92;101081.19;5077144;27;46326;-62
2022/06/18 02:03:57;;;;;;;;;16.50;16.50;;;;;28.32;39.21;101073.56;5073955;27;45456;-63
2022/06/18 02:06:24;;;;;;;;;15.00;15.00;;;;;28.30;39.19;101075.59;5057315;28;45418;-62
2022/06/18 02:08:50;;;;;;;;;14.50;13.75;;;;;28.28;39.36;101072.19;5074960;27;45377;-65
2022/06/18 02:11:18;;;;;;;;;13.50;13.50;;;;;28.26;39.48;101066.06;5065158;27;45474;-62
2022/06/18 02:13:57;;;;;;;;;14.00;12.40;;;;;28.23;39.78;101071.78;5074750;27;45565;-63
2022/06/18 02:16:27;;;;;;;;;14.50;13.50;;;;;28.24;39.83;101062.69;5077345;27;45535;-62
2022/06/18 02:18:53;;;;;;;;;16.75;16.75;;;;;28.23;39.51;101060.97;5073299;27;45496;-62
2022/06/18 02:21:23;;;;;;;;;16.00;15.00;;;;;28.13;39.87;101065.63;5057499;28;45495;-63
2022/06/18 02:23:53;;;;;;;;;15.20;14.80;;;;;28.08;40.01;101060.72;5057157;28;45450;-61
2022/06/18 02:26:21;;;;;;;;;15.50;14.25;;;;;28.01;40.07;101061.50;5065572;27;45495;-63
2022/06/18 02:28:50;;;;;;;;;13.00;13.00;;;;;28.03;40.12;101057.63;5064071;27;45524;-62
2022/06/18 02:31:19;;;;;;;;;12.50;12.50;;;;;28.01;39.85;101053.38;5057751;27;46476;-64
2022/06/18 02:33:55;;;;;;;;;18.75;15.00;;;;;27.99;40.22;101053.53;5066166;27;45458;-62
2022/06/18 02:36:25;;;;;;;;;15.50;14.50;;;;;27.94;39.74;101054.00;5059847;28;45504;-62
2022/06/18 02:38:58;;;;;;;;;12.25;12.25;;;;;27.92;40.04;101047.06;5068514;27;45453;-63
2022/06/18 02:41:25;;;;;;;;;9.75;9.25;;;;;27.94;40.39;101040.50;5059505;27;47335;-65
2022/06/18 02:43:51;;;;;;;;;15.60;15.60;;;;;27.94;39.83;101032.38;5056481;27;45515;-62
2022/06/18 02:46:20;;;;;;;;;13.25;13.25;;;;;27.95;39.79;101034.06;5076071;27;45522;-63
2022/06/18 02:48:46;;;;;;;;;13.50;13.50;;;;;27.92;40.15;101030.84;5067370;27;45555;-60
2022/06/18 02:51:13;;;;;;;;;13.00;13.00;;;;;27.95;40.02;101031.38;5068522;27;45491;-64
2022/06/18 02:53:39;;;;;;;;;14.00;14.00;;;;;27.93;39.70;101029.81;5075846;27;45632;-63
2022/06/18 02:56:07;;;;;;;;;13.25;13.25;;;;;27.95;39.54;101028.66;5061254;28;45544;-64
2022/06/18 02:58:35;;;;;;;;;12.50;12.50;;;;;27.96;40.20;101026.81;5063509;28;45449;-63
2022/06/18 03:01:22;;;;;;;;;15.50;15.50;;;;;27.95;40.34;101025.97;5074952;27;46296;-64
2022/06/18 03:03:50;;;;;;;;;14.60;14.60;;;;;27.95;40.08;101025.97;5074280;27;45528;-65
2022/06/18 03:06:19;;;;;;;;;16.00;16.00;;;;;27.92;40.57;101015.47;5069897;27;45529;-64
2022/06/18 03:08:46;;;;;;;;;17.25;14.75;;;;;27.91;40.58;101015.59;5074076;27;45473;-65
2022/06/18 03:13:57;;;;;;;;;14.50;14.50;;;;;27.88;40.44;101008.66;5057017;28;45480;-62
2022/06/18 03:16:22;;;;;;;;;13.75;13.75;;;;;27.85;40.53;101006.28;5060882;27;45509;-61
2022/06/18 03:18:50;;;;;;;;;16.50;15.25;;;;;27.83;40.54;100994.75;5056124;28;45510;-61
2022/06/18 03:21:36;;;;;;;;;14.75;14.75;;;;;27.82;40.73;100992.22;5065743;27;46657;-62
2022/06/18 03:24:02;;;;;;;;;17.25;16.75;;;;;27.81;40.74;100988.69;5063480;28;45552;-63
2022/06/18 03:26:31;;;;;;;;;14.00;13.50;;;;;27.76;40.51;100988.28;5057405;28;45474;-64
2022/06/18 03:28:57;;;;;;;;;13.75;13.00;;;;;27.70;40.01;100983.47;5061213;27;45494;-65
2022/06/18 03:31:29;;;;;;;;;13.50;13.50;;;;;27.70;40.26;100981.66;5059214;27;47768;-63
2022/06/18 03:33:54;;;;;;;;;14.50;14.50;;;;;27.73;39.93;100992.13;5056720;28;45553;-63
2022/06/18 03:36:21;;;;;;;;;13.50;11.50;;;;;27.66;39.73;100968.59;5071792;27;45533;-65
2022/06/18 03:38:47;;;;;;;;;12.50;12.50;;;;;27.68;39.46;100982.81;5072461;27;45504;-62
2022/06/18 03:41:13;;;;;;;;;11.00;11.00;;;;;27.63;39.63;100974.31;5068805;27;45505;-63
2022/06/18 03:43:39;;;;;;;;;14.25;13.25;;;;;27.64;39.33;100981.41;5072282;27;45598;-62
2022/06/18 03:46:08;;;;;;;;;12.75;12.75;;;;;27.62;39.43;100984.28;5055389;28;45490;-64
2022/06/18 03:48:45;;;;;;;;;13.50;12.75;;;;;27.61;38.97;100979.03;5057985;27;45422;-65
2022/06/18 03:51:12;;;;;;;;;11.25;11.25;;;;;27.60;39.09;100980.03;5064221;27;45497;-65
2022/06/18 03:53:37;;;;;;;;;12.25;11.75;;;;;27.56;38.96;100974.06;5062424;27;45423;-65
2022/06/18 03:56:04;;;;;;;;;12.25;12.25;;;;;27.57;39.28;100977.66;5056535;28;45454;-65
2022/06/18 03:58:30;;;;;;;;;11.25;10.00;;;;;27.55;39.37;100980.50;5053790;28;45534;-61
2022/06/18 04:00:56;;;;;;;;;12.25;12.25;;;;;27.54;38.68;100976.94;5063177;27;46586;-61
2022/06/18 04:03:22;;;;;;;;;10.75;10.75;;;;;27.52;39.15;100978.09;5074756;27;45556;-62
2022/06/18 04:05:47;;;;;;;;;10.25;10.25;;;;;27.52;38.87;100978.94;5074113;27;45432;-64
2022/06/18 04:08:15;;;;;;;;;12.00;11.00;;;;;27.50;38.95;100977.41;5055273;28;45457;-62
2022/06/18 04:10:41;;;;;;;;;11.00;11.00;;;;;27.50;38.41;100980.94;5058332;27;45675;-63
2022/06/18 04:13:07;;;;;;;;;12.00;12.00;;;;;27.47;38.58;100970.47;5054814;28;45539;-63
2022/06/18 04:15:32;;;;;;;;;13.50;12.75;;;;;27.48;38.56;100971.28;5054742;28;45562;-61
2022/06/18 04:17:58;;;;;;;;;9.00;9.00;;;;;27.45;38.77;100968.91;5060750;27;45538;-63
2022/06/18 04:20:27;;;;;;;;;10.00;8.75;;;;;27.47;38.68;100966.91;5061903;27;46173;-64
2022/06/18 04:22:54;;;;;;;;;12.00;12.00;;;;;27.46;38.64;100974.19;5073072;27;45583;-65
2022/06/18 04:25:20;;;;;;;;;11.50;11.50;;;;;27.44;39.29;100970.78;5073354;27;45722;-63
2022/06/18 04:27:46;;;;;;;;;10.50;10.50;;;;;27.42;39.39;100963.81;5071414;27;45555;-64
2022/06/18 04:30:13;;;;;;;;;12.00;12.00;;;;;27.41;39.57;100960.28;5057639;28;45487;-62
2022/06/18 04:32:38;;;;;;;;;11.25;11.25;;;;;27.42;39.13;100959.25;5072605;27;45883;-65
2022/06/18 04:35:10;;;;;;;;;13.75;12.25;;;;;27.41;39.69;100960.28;5059464;27;45477;-64
2022/06/18 04:37:42;;;;;;;;;13.25;12.50;;;;;27.40;40.11;100957.72;5062447;27;45462;-64
2022/06/18 04:40:10;;;;;;;;;14.00;14.00;;;;;27.40;40.20;100955.03;5063429;27;45805;-63
2022/06/18 04:42:36;;;;;;;;;11.00;11.00;;;;;27.40;40.51;100961.25;5054069;28;45409;-64
2022/06/18 04:45:01;;;;;;;;;12.25;12.25;;;;;27.40;40.46;100960.41;5055115;28;45610;-63
2022/06/18 04:47:27;;;;;;;;;13.25;11.75;;;;;27.38;40.40;100962.41;5054229;28;45656;-62
2022/06/18 04:49:53;;;;;;;;;12.75;12.50;;;;;27.38;41.07;100967.81;5065486;27;46171;-60
2022/06/18 04:52:19;;;;;;;;;16.25;13.50;;;;;27.38;40.37;100963.28;5069110;27;45601;-61
2022/06/18 04:54:44;;;;;;;;;13.25;13.00;;;;;27.37;40.57;100971.53;5064835;27;45490;-62
2022/06/18 04:57:10;;;;;;;;;13.00;12.25;;;;;27.34;40.80;100975.41;5073556;27;45501;-66
2022/06/18 04:59:35;;;;;;;;;13.50;13.50;;;;;27.36;40.80;100977.97;5073729;28;46037;-63
2022/06/18 05:02:04;;;;;;;;;12.50;12.50;;;;;27.39;40.52;100977.66;5071950;27;45527;-64
2022/06/18 05:04:30;;;;;;;;;14.25;14.25;;;;;27.41;40.48;100981.06;5071874;27;45485;-65
2022/06/18 05:06:55;;;;;;;;;14.00;14.00;;;;;27.40;40.77;100980.16;5052516;28;45637;-62
2022/06/18 05:09:21;;;;;;;;;13.50;13.50;;;;;27.37;41.08;100975.09;5062580;28;45556;-61
2022/06/18 05:11:47;;;;;;;;;15.50;13.00;;;;;27.38;40.62;100974.09;5067948;28;54643;-63
2022/06/18 05:14:14;;;;;;;;;16.00;14.75;;;;;27.37;40.88;100975.09;5065704;27;45545;-64
2022/06/18 05:16:40;;;;;;;;;15.25;14.75;;;;;27.36;41.26;100975.25;5066149;27;45526;-64
2022/06/18 05:19:05;;;;;;;;;13.50;12.50;;;;;27.38;41.52;100973.22;5064249;27;45640;-63
2022/06/18 05:21:31;;;;;;;;;16.50;16.50;;;;;27.36;40.85;100975.25;5070448;27;45368;-61
2022/06/18 05:23:56;;;;;;;;;17.75;16.25;;;;;27.36;41.70;100976.09;5061231;28;45517;-62
2022/06/18 05:26:22;;;;;;;;;15.00;15.00;;;;;27.37;41.60;100980.47;5064457;27;45682;-64
2022/06/18 05:28:47;;;;;;;;;16.00;16.00;;;;;27.35;41.70;100969.00;5071679;27;46679;-63
2022/06/18 05:31:12;;;;;;;;;15.25;14.00;;;;;27.35;41.51;100965.44;5073876;27;45442;-63
2022/06/18 05:33:38;;;;;;;;;19.75;17.75;;;;;27.33;41.45;100954.81;5072433;27;45616;-65
2022/06/18 05:36:05;;;;;;;;;16.50;15.75;;;;;27.34;41.83;100969.16;5065510;27;45435;-63
2022/06/18 05:38:30;;;;;;;;;15.00;13.75;;;;;27.35;41.68;100960.91;5058108;28;46118;-64
2022/06/18 05:40:56;;;;;;;;;16.75;16.75;;;;;27.36;41.73;100959.88;5063029;28;45409;-64
2022/06/18 05:43:21;;;;;;;;;14.75;14.75;;;;;27.37;41.76;100952.63;5061678;28;45986;-62
2022/06/18 05:45:47;;;;;;;;;16.50;16.50;;;;;27.39;42.30;100953.34;5071354;27;45489;-66
2022/06/18 05:48:13;;;;;;;;;15.25;15.25;;;;;27.40;41.71;100955.03;5073342;27;45479;-64
2022/06/18 05:50:38;;;;;;;;;17.75;16.50;;;;;27.39;41.77;100956.03;5064973;27;45548;-63
2022/06/18 05:53:04;;;;;;;;;16.00;16.00;;;;;27.39;41.84;100954.19;5075640;27;45558;-63
2022/06/18 05:55:32;;;;;;;;;13.75;13.75;;;;;27.39;42.12;100951.47;5058559;28;45488;-65
2022/06/18 05:57:58;;;;;;;;;15.50;14.50;;;;;27.39;41.85;100946.06;5074505;27;45690;-64
2022/06/18 06:00:26;;;;;;;;;13.75;12.75;;;;;27.41;41.55;100940.53;5074164;27;45481;-64
2022/06/18 06:02:52;;;;;;;;;15.00;15.00;;;;;27.40;41.65;100942.34;5057218;27;45492;-62
2022/06/18 06:05:17;;;;;;;;;16.00;14.25;;;;;27.40;41.50;100946.91;5062049;27;45684;-62
2022/06/18 06:07:46;;;;;;;;;14.75;13.75;;;;;27.41;41.35;100948.63;5061165;28;45525;-62
2022/06/18 06:13:04;;;;;;;;;15.00;13.25;;;;;27.39;41.53;100937.97;5075463;27;45397;-64
2022/06/18 06:15:30;;;;;;;;;14.75;14.75;;;;;27.42;41.36;100934.09;5066965;27;45556;-65
2022/06/18 06:17:55;;;;;;;;;12.75;12.75;;;;;27.44;40.96;100935.66;5074930;27;46235;-61
2022/06/18 06:20:31;;;;;;;;;14.50;14.50;;;;;27.44;40.67;100932.94;5057599;27;45434;-63
2022/06/18 06:22:57;;;;;;;;;12.75;11.75;;;;;27.44;41.18;100927.53;5059580;27;45561;-64
2022/06/18 06:25:23;;;;;;;;;15.00;15.00;;;;;27.43;40.79;100928.56;5071496;27;45689;-61
2022/06/18 06:27:48;;;;;;;;;14.25;14.25;;;;;27.44;41.02;100924.84;5073747;27;45654;-64
2022/06/18 06:30:16;;;;;;;;;16.00;16.00;;;;;27.46;41.19;100933.66;5072910;27;45671;-67
2022/06/18 06:32:42;;;;;;;;;15.00;13.25;;;;;27.47;41.30;100929.94;5062794;27;45401;-67
2022/06/18 06:35:07;;;;;;;;;14.00;13.00;;;;;27.50;41.64;100928.78;5076992;27;45591;-67
2022/06/18 06:37:33;;;;;;;;;14.00;13.00;;;;;27.51;41.40;100930.47;5068554;27;46242;-67
2022/06/18 06:39:58;;;;;;;;;14.00;13.50;;;;;27.56;41.60;100936.25;5067142;27;45545;-68
2022/06/18 06:42:23;;;;;;;;;14.00;14.00;;;;;27.59;40.63;100922.41;5075647;27;45452;-68
2022/06/18 06:44:49;;;;;;;;;16.00;16.00;;;;;27.62;40.98;100923.97;5076499;27;45425;-66
2022/06/18 06:47:17;;;;;;;;;13.00;13.00;;;;;27.65;40.79;100919.09;5076317;27;45448;-66
2022/06/18 06:49:42;;;;;;;;;14.00;14.00;;;;;27.65;40.70;100920.97;5068886;27;45387;-68
2022/06/18 06:52:11;;;;;;;;;13.50;13.50;;;;;27.71;40.40;100928.44;5075262;27;45442;-68
2022/06/18 06:54:37;;;;;;;;;14.50;14.50;;;;;27.76;40.39;100932.34;5076852;27;45618;-67
2022/06/18 06:57:21;;;;;;;;;12.50;12.50;;;;;27.81;40.01;100934.63;5075197;27;45550;-68
2022/06/18 06:59:46;;;;;;;;;13.25;13.25;;;;;27.85;39.49;100941.41;5077765;27;45586;-68
2022/06/18 07:02:16;;;;;;;;;12.00;12.00;;;;;27.88;40.17;100938.38;5096920;27;45601;-68
2022/06/18 07:04:42;;;;;;;;;14.75;13.00;;;;;27.92;39.62;100942.47;5071838;27;45707;-67
2022/06/18 07:07:11;;;;;;;;;13.75;13.75;;;;;27.98;39.39;100949.09;5055712;28;45397;-68
2022/06/18 07:09:37;;;;;;;;;10.25;10.25;;;;;28.00;38.60;100951.66;5055614;28;45467;-68
2022/06/18 07:12:03;;;;;;;;;10.75;10.75;;;;;28.02;38.08;100944.19;5055848;28;45408;-68
2022/06/18 07:14:28;;;;;;;;;15.75;15.25;;;;;28.04;36.93;100942.19;5056452;28;45622;-68
2022/06/18 07:16:53;;;;;;;;;15.75;13.25;;;;;28.08;37.53;100941.72;5054557;28;46055;-68
2022/06/18 07:19:20;;;;;;;;;9.50;9.50;;;;;28.14;37.75;100941.06;5055830;28;45477;-68
2022/06/18 07:21:49;;;;;;;;;17.00;14.00;;;;;28.14;37.79;100942.94;5065382;27;45408;-63
2022/06/18 07:24:14;;;;;;;;;12.00;12.00;;;;;28.22;37.89;100945.69;5075885;27;45504;-68
2022/06/18 07:26:39;;;;;;;;;12.00;12.00;;;;;28.26;37.58;100946.19;5075136;27;49153;-67
2022/06/18 07:29:05;;;;;;;;;11.00;10.50;;;;;28.31;37.56;100943.88;5075178;28;45461;-64
2022/06/18 07:31:33;;;;;;;;;11.75;11.75;;;;;28.39;37.78;100946.59;5075401;27;45495;-70
2022/06/18 07:34:00;;;;;;;;;12.25;11.50;;;;;28.42;37.47;100939.03;5072488;27;45549;-70
2022/06/18 07:36:26;;;;;;;;;10.00;10.00;;;;;28.44;37.34;100928.06;5075390;27;45480;-68
2022/06/18 07:38:52;;;;;;;;;13.00;13.00;;;;;28.49;37.66;100933.84;5075124;27;45393;-66
2022/06/18 07:41:20;;;;;;;;;12.00;12.00;;;;;28.51;37.25;100923.72;5075519;28;45565;-66
2022/06/18 07:43:55;;;;;;;;;12.00;12.00;;;;;28.55;37.58;100930.47;5074152;27;45701;-66
2022/06/18 07:46:21;;;;;;;;;10.25;10.00;;;;;28.56;37.55;100926.78;5075654;27;46130;-66
2022/06/18 07:48:46;;;;;;;;;9.75;9.75;;;;;28.56;37.14;100917.78;5075299;27;45554;-65
2022/06/18 07:51:12;;;;;;;;;12.00;12.00;;;;;28.58;37.51;100915.75;5077876;27;45480;-65
2022/06/18 07:53:38;;;;;;;;;14.00;14.00;;;;;28.63;37.16;100922.38;5075517;27;45748;-67
2022/06/18 07:56:04;;;;;;;;;10.25;10.25;;;;;28.68;37.06;100926.47;5074910;27;46204;-64
2022/06/18 07:58:30;;;;;;;;;13.40;12.40;;;;;28.69;36.90;100918.16;5063757;28;45406;-65
2022/06/18 08:00:56;;;;;;;;;12.25;12.25;;;;;28.73;36.83;100916.84;5054822;28;45510;-65
2022/06/18 08:03:23;;;;;;;;;13.00;13.00;;;;;28.76;36.92;100915.66;5055878;28;45614;-69
2022/06/18 08:05:48;;;;;;;;;13.00;13.00;;;;;28.78;36.20;100910.94;5064717;27;45860;-68
2022/06/18 08:08:15;;;;;;;;;12.00;12.00;;;;;28.82;36.63;100917.69;5066734;27;45656;-71
2022/06/18 08:10:42;;;;;;;;;10.00;10.00;;;;;28.85;35.96;100914.66;5073917;27;45589;-69
2022/06/18 08:13:09;;;;;;;;;12.25;11.75;;;;;28.89;36.13;100915.19;5075588;27;45421;-70
2022/06/18 08:15:35;;;;;;;;;13.25;13.25;;;;;28.90;36.19;100906.03;5075076;27;45513;-69
2022/06/18 08:18:00;;;;;;;;;11.75;11.75;;;;;28.92;36.09;100898.59;5075093;27;45482;-67
2022/06/18 08:20:27;;;;;;;;;13.25;13.00;;;;;28.99;36.58;100896.91;5073566;28;45561;-66
2022/06/18 08:22:55;;;;;;;;;14.00;13.00;;;;;29.03;36.24;100890.16;5068442;27;45540;-67
2022/06/18 08:25:23;;;;;;;;;12.75;11.25;;;;;29.03;36.69;100884.75;5074048;27;46472;-66
2022/06/18 08:27:51;;;;;;;;;16.00;14.40;;;;;29.09;36.35;100884.09;5072864;28;45488;-67
2022/06/18 08:30:17;;;;;;;;;13.25;12.50;;;;;29.09;35.85;100881.38;5064793;27;45526;-69
2022/06/18 08:32:44;;;;;;;;;13.50;12.50;;;;;29.12;36.40;100881.03;5054625;28;45578;-69
2022/06/18 08:35:10;;;;;;;;;14.50;13.50;;;;;29.16;36.03;100890.53;5072636;27;45486;-69
2022/06/18 08:37:37;;;;;;;;;14.00;13.00;;;;;29.18;36.01;100885.81;5074677;27;45456;-69
2022/06/18 08:40:34;;;;;;;;;13.00;13.00;;;;;29.20;36.26;100881.03;5074653;27;45485;-71
2022/06/18 08:43:15;;;;;;;;;15.50;15.50;;;;;29.20;36.32;100881.03;5057305;27;45547;-65
2022/06/18 08:45:49;;;;;;;;;12.00;12.00;;;;;29.23;36.73;100886.16;5053805;27;45553;-67
2022/06/18 08:48:34;;;;;;;;;13.25;13.25;;;;;29.20;36.55;100867.50;5052386;28;45547;-66
2022/06/18 08:51:07;;;;;;;;;13.75;13.25;;;;;29.31;36.78;100877.16;5059416;28;45510;-69
2022/06/18 08:54:04;;;;;;;;;14.00;13.75;;;;;29.34;36.47;100870.53;5060632;27;45447;-66
2022/06/18 08:56:46;;;;;;;;;15.25;14.00;;;;;29.37;36.46;100853.97;5068805;27;45544;-67
2022/06/18 08:59:19;;;;;;;;;13.80;12.80;;;;;29.41;36.11;100856.16;5074684;27;45528;-66
2022/06/18 09:02:06;;;;;;;;;15.25;14.50;;;;;29.40;36.16;100846.34;5074303;27;45572;-70
2022/06/18 09:04:57;;;;;;;;;12.75;12.00;;;;;29.46;35.99;100851.06;5072566;27;45542;-70
2022/06/18 09:07:36;;;;;;;;;14.75;14.50;;;;;29.48;36.03;100846.31;5075798;27;45454;-70
2022/06/18 09:10:46;;;;;;;;;15.80;13.80;;;;;29.48;36.36;100845.50;5073430;27;45459;-73
2022/06/18 09:13:19;;;;;;;;;12.00;12.00;;;;;29.51;35.62;100845.13;5073662;27;45446;-73
2022/06/18 09:15:50;;;;;;;;;15.25;15.25;;;;;29.55;35.68;100840.22;5073364;27;45592;-72
2022/06/18 09:18:25;;;;;;;;;10.50;10.50;;;;;29.56;35.68;100839.22;5074493;27;45880;-70
2022/06/18 09:21:03;;;;;;;;;12.40;12.40;;;;;29.58;35.08;100831.72;5074650;27;44863;-70
2022/06/18 09:23:50;;;;;;;;;11.60;11.60;;;;;29.61;34.78;100837.66;5069271;27;45367;-67
2022/06/18 09:26:37;;;;;;;;;13.75;13.75;;;;;29.66;34.82;100834.47;5074031;27;45569;-70
2022/06/18 09:29:24;;;;;;;;;14.50;13.50;;;;;29.69;34.37;100824.13;5059198;27;46348;-67
2022/06/18 09:32:13;;;;;;;;;12.00;12.00;;;;;29.73;33.94;100822.75;5064221;27;45521;-71
2022/06/18 09:34:47;;;;;;;;;13.50;13.50;;;;;29.78;34.19;100821.41;5074259;27;45516;-70
2022/06/18 09:37:21;;;;;;;;;13.50;13.50;;;;;29.79;33.83;100812.22;5074403;27;45466;-74
2022/06/18 09:39:55;;;;;;;;;11.00;11.00;;;;;29.83;32.39;100811.72;5063778;27;45546;-68
2022/06/18 09:42:42;;;;;;;;;13.80;12.20;;;;;29.92;32.22;100813.38;5064459;27;45540;-68
2022/06/18 09:45:16;;;;;;;;;12.40;11.60;;;;;29.98;33.33;100798.25;5062754;27;45529;-69
2022/06/18 09:47:48;;;;;;;;;12.25;11.50;;;;;30.04;32.83;100803.00;5070930;27;45471;-72
2022/06/18 09:50:26;;;;;;;;;11.50;11.00;;;;;30.10;32.64;100801.44;5065631;27;45555;-71
2022/06/18 09:53:10;;;;;;;;;14.80;14.20;;;;;30.10;33.27;100794.13;5054012;28;45462;-69
2022/06/18 09:56:01;;;;;;;;;13.20;13.20;;;;;30.11;32.54;100793.09;5057238;27;45553;-70
2022/06/18 09:58:32;;;;;;;;;12.50;11.75;;;;;30.12;32.74;100785.84;5054298;27;45497;-66
2022/06/18 10:01:00;;;;;;;;;13.25;13.25;;;;;30.13;32.49;100784.81;5059195;28;45599;-70
2022/06/18 10:09:10;;;;;;;;;12.75;11.00;;;;;30.25;31.69;100768.97;5059337;27;45526;-65
2022/06/18 10:11:38;;;;;;;;;11.00;11.00;;;;;30.29;30.75;100765.75;5054577;28;46064;-61
2022/06/18 10:14:23;;;;;;;;;11.40;11.40;;;;;30.33;30.72;100756.22;5056690;28;45489;-63
2022/06/18 10:17:01;;;;;;;;;8.40;8.40;;;;;30.41;30.92;100762.63;5073903;27;45522;-65
2022/06/18 10:19:34;;;;;;;;;9.75;9.75;;;;;30.46;30.84;100758.34;5077081;27;45495;-66
2022/06/18 10:22:18;;;;;;;;;31.67;30.67;;;;;30.50;32.01;100751.53;5074972;27;45551;-67
2022/06/18 10:24:59;;;;;;;;;13.60;12.20;;;;;30.50;30.42;100750.69;5076512;27;45468;-62
2022/06/18 10:27:36;;;;;;;;;9.00;9.00;;;;;30.52;29.82;100738.63;5069649;28;45398;-61
2022/06/18 10:30:08;;;;;;;;;10.50;9.00;;;;;30.59;29.00;100734.16;5075119;28;45492;-61
2022/06/18 10:32:57;;;;;;;;;10.00;10.00;;;;;30.59;28.76;100726.00;5076485;27;45566;-63
2022/06/18 10:35:29;;;;;;;;;9.80;9.00;;;;;30.69;27.85;100730.34;5056242;28;45579;-60
2022/06/18 10:38:28;;;;;;;;;10.40;10.20;;;;;30.71;28.00;100729.16;5060363;27;45477;-62
2022/06/18 10:41:20;;;;;;;;;10.50;9.00;;;;;30.82;27.58;100733.31;5075163;27;45497;-63
2022/06/18 10:44:29;;;;;;;;;10.60;10.20;;;;;30.87;27.74;100724.59;5076036;27;46168;-63
2022/06/18 10:47:18;;;;;;;;;12.00;11.80;;;;;30.92;27.23;100736.59;5034472;28;45525;-63
2022/06/18 10:49:58;;;;;;;;;11.00;11.00;;;;;31.00;28.03;100728.41;5056451;28;45548;-65
2022/06/18 10:52:25;;;;;;;;;13.00;13.00;;;;;31.09;28.00;100718.28;5056184;28;45537;-62
2022/06/18 10:55:04;;;;;;;;;10.60;10.60;;;;;31.13;28.08;100713.31;5054535;28;47862;-63
2022/06/18 10:57:29;;;;;;;;;11.00;11.00;;;;;31.15;28.03;100711.28;5055944;28;45599;-60
2022/06/18 10:59:55;;;;;;;;;12.00;12.00;;;;;31.18;28.69;100705.47;5056121;28;45375;-62
2022/06/18 11:02:32;;;;;;;;;13.25;11.00;;;;;31.22;28.31;100706.78;5055951;28;45380;-59
2022/06/18 11:05:03;;;;;;;;;9.40;9.40;;;;;31.20;27.83;100687.09;5064631;27;46613;-60
2022/06/18 11:07:31;;;;;;;;;9.00;9.00;;;;;31.23;26.65;100692.16;5076749;27;45493;-61
2022/06/18 11:10:25;;;;;;;;;10.00;10.00;;;;;31.27;27.28;100688.03;5070435;27;45539;-60
2022/06/18 11:12:53;;;;;;;;;10.00;10.00;;;;;31.31;27.50;100686.63;5050679;28;45361;-60
2022/06/18 11:15:24;;;;;;;;;7.40;7.20;;;;;31.36;27.20;100686.06;5056892;28;46132;-61
2022/06/18 11:17:49;;;;;;;;;11.00;8.60;;;;;31.38;26.20;100678.59;5056985;28;45533;-60
2022/06/18 11:20:15;;;;;;;;;12.75;11.00;;;;;31.42;27.05;100686.19;5055815;28;45833;-60
2022/06/18 11:22:42;;;;;;;;;9.75;9.00;;;;;31.45;27.46;100679.53;5055925;28;45454;-60
2022/06/18 11:25:39;;;;;;;;;12.00;12.00;;;;;31.50;26.92;100668.09;5056774;28;45489;-60
2022/06/18 11:28:21;;;;;;;;;12.20;12.20;;;;;31.55;27.54;100660.22;5071118;27;45762;-60
2022/06/18 11:30:49;;;;;;;;;14.00;14.00;;;;;31.59;27.92;100666.94;5055371;28;45465;-58
2022/06/18 11:33:37;;;;;;;;;10.50;10.50;;;;;31.59;27.65;100664.22;5055888;28;45477;-60
2022/06/18 11:36:11;;;;;;;;;12.00;10.60;;;;;31.62;28.45;100655.69;5055218;28;45459;-60
2022/06/18 11:38:38;;;;;;;;;11.20;10.00;;;;;31.68;27.56;100654.94;5055378;28;45424;-61